createdAt,value
2019-04-28T00:01:21.323Z,5.30
2019-04-28T00:03:51.602Z,5.30
2019-04-28T00:06:21.294Z,5.20
2019-04-28T00:08:51.786Z,5.20
2019-04-28T00:11:22.428Z,5.20
2019-04-28T00:13:53.547Z,5.20
2019-04-28T00:16:22.999Z,5.10
2019-04-28T00:18:52.789Z,5.10
2019-04-28T00:21:45.765Z,5.10
2019-04-28T00:24:33.514Z,5.00
2019-04-28T00:27:05.000Z,5.00
2019-04-28T00:29:40.388Z,5.00
2019-04-28T00:32:05.688Z,4.90
2019-04-28T00:34:34.913Z,4.90
2019-04-28T00:37:13.905Z,4.90
2019-04-28T00:39:47.905Z,4.90
2019-04-28T00:42:17.175Z,4.90
2019-04-28T00:44:46.457Z,4.80
2019-04-28T00:47:15.742Z,4.90
2019-04-28T00:49:47.775Z,4.80
2019-04-28T00:52:22.235Z,4.80
2019-04-28T00:54:52.823Z,4.80
2019-04-28T00:57:22.981Z,4.70
2019-04-28T00:59:58.101Z,4.70
2019-04-28T01:02:33.728Z,4.60
2019-04-28T01:05:04.408Z,4.60
2019-04-28T01:07:33.621Z,4.50
2019-04-28T01:10:03.280Z,4.50
2019-04-28T01:12:32.475Z,4.50
2019-04-28T01:15:04.591Z,4.50
2019-04-28T01:18:00.815Z,4.50
2019-04-28T01:20:30.442Z,4.50
2019-04-28T01:23:02.712Z,4.50
2019-04-28T01:25:32.152Z,4.60
2019-04-28T01:28:01.329Z,4.50
2019-04-28T01:30:52.631Z,4.60
2019-04-28T01:33:32.096Z,4.60
2019-04-28T01:36:01.398Z,4.60
2019-04-28T01:38:30.567Z,4.60
2019-04-28T01:41:01.469Z,4.50
2019-04-28T01:43:31.347Z,4.50
2019-04-28T01:46:05.764Z,4.50
2019-04-28T01:48:39.458Z,4.50
2019-04-28T01:51:12.332Z,4.50
2019-04-28T01:53:41.492Z,4.40
2019-04-28T01:56:10.758Z,4.50
2019-04-28T01:58:40.449Z,4.50
2019-04-28T02:01:10.917Z,4.50
2019-04-28T02:03:42.141Z,4.50
2019-04-28T02:06:11.622Z,4.40
2019-04-28T02:08:41.000Z,4.50
2019-04-28T02:11:13.058Z,4.50
2019-04-28T02:13:42.375Z,4.50
2019-04-28T02:16:11.989Z,4.40
2019-04-28T02:18:41.194Z,4.40
2019-04-28T02:21:44.714Z,4.50
2019-04-28T02:24:33.861Z,4.40
2019-04-28T02:27:03.004Z,4.40
2019-04-28T02:29:32.590Z,4.40
2019-04-28T02:32:02.577Z,4.50
2019-04-28T02:34:32.373Z,4.50
2019-04-28T02:37:02.016Z,4.50
2019-04-28T02:39:31.901Z,4.50
2019-04-28T02:42:01.820Z,4.60
2019-04-28T02:44:34.938Z,4.50
2019-04-28T02:47:03.453Z,4.60
2019-04-28T02:49:54.337Z,4.60
2019-04-28T02:52:42.866Z,4.60
2019-04-28T02:55:12.116Z,4.60
2019-04-28T02:57:41.372Z,4.60
2019-04-28T03:00:14.204Z,4.60
2019-04-28T03:02:43.535Z,4.60
2019-04-28T03:05:12.855Z,4.70
2019-04-28T03:07:42.143Z,4.70
2019-04-28T03:10:11.769Z,4.70
2019-04-28T03:12:47.363Z,4.70
2019-04-28T03:15:16.810Z,4.70
2019-04-28T03:17:46.047Z,4.70
2019-04-28T03:20:15.620Z,4.70
2019-04-28T03:22:44.860Z,4.80
2019-04-28T03:25:21.965Z,4.70
2019-04-28T03:28:05.950Z,4.80
2019-04-28T03:30:56.175Z,4.80
2019-04-28T03:33:26.757Z,4.80
2019-04-28T03:36:07.094Z,4.80
2019-04-28T03:38:31.141Z,4.80
2019-04-28T03:41:01.108Z,4.80
2019-04-28T03:43:30.829Z,4.80
2019-04-28T03:46:06.262Z,4.70
2019-04-28T03:48:35.444Z,4.70
2019-04-28T03:51:06.151Z,4.70
2019-04-28T03:53:35.403Z,4.60
2019-04-28T03:56:04.557Z,4.60
2019-04-28T03:58:33.733Z,4.60
2019-04-28T04:01:03.456Z,4.50
2019-04-28T04:03:35.550Z,4.50
2019-04-28T04:06:05.014Z,4.50
2019-04-28T04:08:34.203Z,4.40
2019-04-28T04:11:21.955Z,4.40
2019-04-28T04:13:57.395Z,4.40
2019-04-28T04:16:43.185Z,4.30
2019-04-28T04:19:13.223Z,4.30
2019-04-28T04:21:44.824Z,4.30
2019-04-28T04:24:14.049Z,4.30
2019-04-28T04:26:44.960Z,4.30
2019-04-28T04:29:14.135Z,4.30
2019-04-28T04:31:43.414Z,4.30
2019-04-28T04:34:12.779Z,4.30
2019-04-28T04:36:42.121Z,4.40
2019-04-28T04:39:11.449Z,4.40
2019-04-28T04:41:43.451Z,4.30
2019-04-28T04:44:16.767Z,4.40
2019-04-28T04:46:46.001Z,4.40
2019-04-28T04:49:15.483Z,4.40
2019-04-28T04:51:44.999Z,4.40
2019-04-28T04:54:16.495Z,4.50
2019-04-28T04:56:45.707Z,4.50
2019-04-28T04:59:14.950Z,4.50
2019-04-28T05:01:53.984Z,4.50
2019-04-28T05:04:32.257Z,4.50
2019-04-28T05:07:01.615Z,4.60
2019-04-28T05:09:31.235Z,4.60
2019-04-28T05:12:00.634Z,4.60
2019-04-28T05:14:30.012Z,4.60
2019-04-28T05:17:01.094Z,4.60
2019-04-28T05:19:30.360Z,4.60
2019-04-28T05:22:00.110Z,4.60
2019-04-28T05:24:52.961Z,4.60
2019-04-28T05:27:25.367Z,4.60
2019-04-28T05:29:52.584Z,4.70
2019-04-28T05:32:21.854Z,4.70
2019-04-28T05:34:52.924Z,4.70
2019-04-28T05:37:25.526Z,4.80
2019-04-28T05:39:54.830Z,4.80
2019-04-28T05:42:24.010Z,5.70
2019-04-28T05:44:57.748Z,6.70
2019-04-28T05:47:26.954Z,6.40
2019-04-28T05:50:14.020Z,6.20
2019-04-28T05:53:02.298Z,6.10
2019-04-28T05:55:53.672Z,6.10
2019-04-28T05:58:30.070Z,6.10
2019-04-28T06:01:14.793Z,6.40
2019-04-28T06:03:45.340Z,6.50
2019-04-28T06:06:14.916Z,6.60
2019-04-28T06:09:12.160Z,6.70
2019-04-28T06:11:43.296Z,6.70
2019-04-28T06:14:12.656Z,6.70
2019-04-28T06:16:41.827Z,6.60
2019-04-28T06:19:11.020Z,6.60
2019-04-28T06:21:40.160Z,6.70
2019-04-28T06:24:09.737Z,6.70
2019-04-28T06:26:38.893Z,6.80
2019-04-28T06:29:08.185Z,6.80
2019-04-28T06:31:37.452Z,7.00
2019-04-28T06:34:06.778Z,7.10
2019-04-28T06:36:37.053Z,7.30
2019-04-28T06:39:08.837Z,7.80
2019-04-28T06:41:39.717Z,7.90
2019-04-28T06:44:08.964Z,8.20
2019-04-28T06:46:38.176Z,8.60
2019-04-28T06:49:07.347Z,8.90
2019-04-28T06:51:37.156Z,9.10
2019-04-28T06:54:06.616Z,9.20
2019-04-28T06:56:35.875Z,9.10
2019-04-28T06:59:05.443Z,8.70
2019-04-28T07:01:34.708Z,8.50
2019-04-28T07:04:04.080Z,8.80
2019-04-28T07:06:33.986Z,9.60
2019-04-28T07:09:03.635Z,10.30
2019-04-28T07:11:33.061Z,11.00
2019-04-28T07:14:02.269Z,11.50
2019-04-28T07:16:31.527Z,12.30
2019-04-28T07:19:00.724Z,13.00
2019-04-28T07:21:37.994Z,13.50
2019-04-28T07:24:07.329Z,13.90
2019-04-28T07:26:37.728Z,15.10
2019-04-28T07:29:07.018Z,15.80
2019-04-28T07:31:36.547Z,16.00
2019-04-28T07:34:07.750Z,16.00
2019-04-28T07:36:37.038Z,15.90
2019-04-28T07:39:10.261Z,15.60
2019-04-28T07:41:39.492Z,15.50
2019-04-28T07:44:09.024Z,14.80
2019-04-28T07:46:39.942Z,14.50
2019-04-28T07:49:09.141Z,14.30
2019-04-28T07:51:57.912Z,14.60
2019-04-28T07:54:29.964Z,13.90
2019-04-28T07:57:01.962Z,13.70
2019-04-28T07:59:32.952Z,14.30
2019-04-28T08:02:02.551Z,14.70
2019-04-28T08:04:31.902Z,14.80
2019-04-28T08:07:03.424Z,15.60
2019-04-28T08:09:35.603Z,16.50
2019-04-28T08:12:05.914Z,16.90
2019-04-28T08:14:35.284Z,18.40
2019-04-28T08:17:04.830Z,18.00
2019-04-28T08:19:35.216Z,17.90
2019-04-28T08:22:04.729Z,18.40
2019-04-28T08:24:34.144Z,18.00
2019-04-28T08:27:03.527Z,18.50
2019-04-28T08:29:32.726Z,19.00
2019-04-28T08:32:23.794Z,19.10
2019-04-28T08:34:53.875Z,19.50
2019-04-28T08:37:23.205Z,20.60
2019-04-28T08:39:52.580Z,19.20
2019-04-28T08:42:21.887Z,19.10
2019-04-28T08:44:51.308Z,19.50
2019-04-28T08:47:20.631Z,19.90
2019-04-28T08:49:50.136Z,19.90
2019-04-28T08:52:19.403Z,20.20
2019-04-28T08:54:48.649Z,20.40
2019-04-28T08:57:17.863Z,20.30
2019-04-28T08:59:47.423Z,20.20
2019-04-28T09:02:16.667Z,19.80
2019-04-28T09:04:45.920Z,19.30
2019-04-28T09:07:15.210Z,20.00
2019-04-28T09:09:44.573Z,20.40
2019-04-28T09:12:13.917Z,20.30
2019-04-28T09:14:43.374Z,19.80
2019-04-28T09:17:12.707Z,19.70
2019-04-28T09:19:43.866Z,19.50
2019-04-28T09:22:13.088Z,19.10
2019-04-28T09:24:42.561Z,19.50
2019-04-28T09:27:12.805Z,19.00
2019-04-28T09:29:42.012Z,17.70
2019-04-28T09:32:11.258Z,17.20
2019-04-28T09:34:40.579Z,17.80
2019-04-28T09:37:09.776Z,18.90
2019-04-28T09:39:55.740Z,19.10
2019-04-28T09:43:02.348Z,19.40
2019-04-28T09:45:59.135Z,18.40
2019-04-28T09:48:28.339Z,17.00
2019-04-28T09:50:57.519Z,16.40
2019-04-28T09:53:26.770Z,15.70
2019-04-28T09:55:55.986Z,15.00
2019-04-28T09:58:25.283Z,15.00
2019-04-28T10:00:54.534Z,15.50
2019-04-28T10:03:25.266Z,16.40
2019-04-28T10:05:54.942Z,17.20
2019-04-28T10:08:24.264Z,18.30
2019-04-28T10:10:55.335Z,18.10
2019-04-28T10:13:24.622Z,17.60
2019-04-28T10:15:54.450Z,16.70
2019-04-28T10:18:23.823Z,15.80
2019-04-28T10:20:53.639Z,14.90
2019-04-28T10:23:22.941Z,14.40
2019-04-28T10:25:52.382Z,13.80
2019-04-28T10:28:21.592Z,13.60
2019-04-28T10:30:51.496Z,14.00
2019-04-28T10:33:24.892Z,14.80
2019-04-28T10:35:54.100Z,15.60
2019-04-28T10:38:27.215Z,15.60
2019-04-28T10:41:04.558Z,15.30
2019-04-28T10:43:33.825Z,15.50
2019-04-28T10:46:03.465Z,15.10
2019-04-28T10:48:32.890Z,14.70
2019-04-28T10:51:02.163Z,14.60
2019-04-28T10:53:31.470Z,14.60
2019-04-28T10:56:00.733Z,14.30
2019-04-28T10:58:29.930Z,14.60
2019-04-28T11:00:59.332Z,15.00
2019-04-28T11:03:28.539Z,15.30
2019-04-28T11:05:58.496Z,15.90
2019-04-28T11:08:43.146Z,15.80
2019-04-28T11:11:18.822Z,16.00
2019-04-28T11:13:50.624Z,16.40
2019-04-28T11:16:24.925Z,16.50
2019-04-28T11:18:54.263Z,16.60
2019-04-28T11:21:23.522Z,16.20
2019-04-28T11:23:52.896Z,16.40
2019-04-28T11:26:22.299Z,16.20
2019-04-28T11:28:53.864Z,15.60
2019-04-28T11:31:24.031Z,15.40
2019-04-28T11:34:16.677Z,15.30
2019-04-28T11:36:49.783Z,15.40
2019-04-28T11:39:26.932Z,15.40
2019-04-28T11:41:56.265Z,14.70
2019-04-28T11:44:27.545Z,14.00
2019-04-28T11:46:57.475Z,13.60
2019-04-28T11:49:29.357Z,13.30
2019-04-28T11:52:01.403Z,13.30
2019-04-28T11:54:31.775Z,12.90
2019-04-28T11:57:02.456Z,12.70
2019-04-28T11:59:31.758Z,12.80
2019-04-28T12:02:01.362Z,12.70
2019-04-28T12:04:32.092Z,12.50
2019-04-28T12:07:01.366Z,12.90
2019-04-28T12:09:45.172Z,13.20
2019-04-28T12:12:26.305Z,13.50
2019-04-28T12:15:14.591Z,13.50
2019-04-28T12:18:12.065Z,13.20
2019-04-28T12:20:43.038Z,12.90
2019-04-28T12:23:12.378Z,12.70
2019-04-28T12:25:46.118Z,12.50
2019-04-28T12:28:16.918Z,12.70
2019-04-28T12:30:46.267Z,12.90
2019-04-28T12:33:15.990Z,12.70
2019-04-28T12:35:47.853Z,12.80
2019-04-28T12:38:17.752Z,12.80
2019-04-28T12:40:47.350Z,12.80
2019-04-28T12:43:18.358Z,13.10
2019-04-28T12:45:47.684Z,13.20
2019-04-28T12:48:16.964Z,13.30
2019-04-28T12:50:50.047Z,13.30
2019-04-28T12:53:19.432Z,13.40
2019-04-28T12:55:48.742Z,14.20
2019-04-28T12:58:18.024Z,14.20
2019-04-28T13:01:09.128Z,14.60
2019-04-28T13:03:47.372Z,15.10
2019-04-28T13:06:18.081Z,15.20
2019-04-28T13:08:49.922Z,15.20
2019-04-28T13:11:19.258Z,14.30
2019-04-28T13:13:48.644Z,14.40
2019-04-28T13:16:18.177Z,14.00
2019-04-28T13:18:47.361Z,14.30
2019-04-28T13:21:16.708Z,14.00
2019-04-28T13:23:46.175Z,14.20
2019-04-28T13:26:15.513Z,14.70
2019-04-28T13:28:45.074Z,14.80
2019-04-28T13:31:15.074Z,14.90
2019-04-28T13:33:55.904Z,14.60
2019-04-28T13:36:17.161Z,14.20
2019-04-28T13:38:49.074Z,14.40
2019-04-28T13:41:18.580Z,14.40
2019-04-28T13:43:47.895Z,14.30
2019-04-28T13:46:17.859Z,14.50
2019-04-28T13:48:49.456Z,14.40
2019-04-28T13:51:21.070Z,14.40
2019-04-28T13:53:52.430Z,13.70
2019-04-28T13:56:21.822Z,13.50
2019-04-28T13:58:56.768Z,13.00
2019-04-28T14:01:46.208Z,12.40
2019-04-28T14:04:26.475Z,12.40
2019-04-28T14:06:59.392Z,12.20
2019-04-28T14:09:30.103Z,12.00
2019-04-28T14:11:59.387Z,11.90
2019-04-28T14:14:28.685Z,11.70
2019-04-28T14:17:00.290Z,11.60
2019-04-28T14:19:29.609Z,11.50
2019-04-28T14:22:02.206Z,11.60
2019-04-28T14:24:35.841Z,11.70
2019-04-28T14:27:05.797Z,11.50
2019-04-28T14:29:36.594Z,11.70
2019-04-28T14:32:06.118Z,11.70
2019-04-28T14:34:36.761Z,11.60
2019-04-28T14:37:06.031Z,11.80
2019-04-28T14:39:35.315Z,12.30
2019-04-28T14:42:04.599Z,12.70
2019-04-28T14:44:33.823Z,13.00
2019-04-28T14:47:06.112Z,13.30
2019-04-28T14:49:38.731Z,13.50
2019-04-28T14:52:11.530Z,13.20
2019-04-28T14:54:44.555Z,13.30
2019-04-28T14:57:16.245Z,13.20
2019-04-28T14:59:46.057Z,13.00
2019-04-28T15:02:28.579Z,12.80
2019-04-28T15:05:19.796Z,12.70
2019-04-28T15:08:20.202Z,12.60
2019-04-28T15:11:14.724Z,12.60
2019-04-28T15:13:44.130Z,12.50
2019-04-28T15:16:13.576Z,12.50
2019-04-28T15:18:45.162Z,12.50
2019-04-28T15:21:14.608Z,12.50
2019-04-28T15:23:44.182Z,12.50
2019-04-28T15:26:13.445Z,12.60
2019-04-28T15:28:42.794Z,12.60
2019-04-28T15:31:12.098Z,12.50
2019-04-28T15:33:41.595Z,12.20
2019-04-28T15:36:11.276Z,12.20
2019-04-28T15:38:40.544Z,12.20
2019-04-28T15:41:21.030Z,12.10
2019-04-28T15:43:41.068Z,12.10
2019-04-28T15:46:10.398Z,12.40
2019-04-28T15:48:39.733Z,12.50
2019-04-28T15:51:11.518Z,12.40
2019-04-28T15:53:40.721Z,13.10
2019-04-28T15:56:22.759Z,13.50
2019-04-28T15:58:52.031Z,13.10
2019-04-28T16:01:22.437Z,12.80
2019-04-28T16:03:53.233Z,12.90
2019-04-28T16:06:22.855Z,12.90
2019-04-28T16:08:53.673Z,12.40
2019-04-28T16:11:23.040Z,12.50
2019-04-28T16:13:53.357Z,12.40
2019-04-28T16:16:23.704Z,12.20
2019-04-28T16:18:53.025Z,12.10
2019-04-28T16:21:22.517Z,11.90
2019-04-28T16:23:54.057Z,11.70
2019-04-28T16:26:23.424Z,11.40
2019-04-28T16:28:52.754Z,11.30
2019-04-28T16:31:22.090Z,11.20
2019-04-28T16:33:51.277Z,11.30
2019-04-28T16:36:20.501Z,11.20
2019-04-28T16:38:50.215Z,11.00
2019-04-28T16:41:24.651Z,11.00
2019-04-28T16:44:02.274Z,11.00
2019-04-28T16:46:33.295Z,10.80
2019-04-28T16:49:02.520Z,10.90
2019-04-28T16:51:32.801Z,10.80
2019-04-28T16:54:05.884Z,10.90
2019-04-28T16:56:51.355Z,10.80
2019-04-28T16:59:38.488Z,10.90
2019-04-28T17:02:15.699Z,10.80
2019-04-28T17:04:46.105Z,10.60
2019-04-28T17:07:15.441Z,10.50
2019-04-28T17:09:45.061Z,10.50
2019-04-28T17:12:14.341Z,10.30
2019-04-28T17:14:43.943Z,10.30
2019-04-28T17:17:13.617Z,10.30
2019-04-28T17:19:49.120Z,10.30
2019-04-28T17:22:18.483Z,10.30
2019-04-28T17:24:48.080Z,10.10
2019-04-28T17:27:17.412Z,10.20
2019-04-28T17:29:51.083Z,10.20
2019-04-28T17:32:20.436Z,10.20
2019-04-28T17:34:50.044Z,10.20
2019-04-28T17:37:19.291Z,10.10
2019-04-28T17:39:51.428Z,10.20
2019-04-28T17:42:22.719Z,10.10
2019-04-28T17:44:52.489Z,10.10
2019-04-28T17:47:22.931Z,10.10
2019-04-28T17:49:52.259Z,10.00
2019-04-28T17:52:21.583Z,10.00
2019-04-28T17:54:50.825Z,10.00
2019-04-28T17:57:22.818Z,9.90
2019-04-28T17:59:54.123Z,9.90
2019-04-28T18:02:53.422Z,9.80
2019-04-28T18:05:46.152Z,9.80
2019-04-28T18:08:21.207Z,9.70
2019-04-28T18:10:46.579Z,9.60
2019-04-28T18:13:16.484Z,9.50
2019-04-28T18:16:14.470Z,9.40
2019-04-28T18:18:47.403Z,9.30
2019-04-28T18:21:16.663Z,9.30
2019-04-28T18:23:46.059Z,9.30
2019-04-28T18:26:15.435Z,9.30
2019-04-28T18:28:45.010Z,9.30
2019-04-28T18:31:34.197Z,9.30
2019-04-28T18:34:10.023Z,9.30
2019-04-28T18:36:46.086Z,9.30
2019-04-28T18:39:46.883Z,9.20
2019-04-28T18:42:24.636Z,9.30
2019-04-28T18:44:54.424Z,9.20
2019-04-28T18:47:26.436Z,9.10
2019-04-28T18:49:55.727Z,9.10
2019-04-28T18:52:26.631Z,9.00
2019-04-28T18:54:56.007Z,9.00
2019-04-28T18:57:25.611Z,8.90
2019-04-28T18:59:55.643Z,8.90
2019-04-28T19:02:44.454Z,8.80
2019-04-28T19:05:14.174Z,8.70
2019-04-28T19:08:14.682Z,8.70
2019-04-28T19:10:52.259Z,8.70
2019-04-28T19:13:25.712Z,8.70
2019-04-28T19:16:16.994Z,8.60
2019-04-28T19:18:47.847Z,8.50
2019-04-28T19:21:17.159Z,8.50
2019-04-28T19:23:46.605Z,8.40
2019-04-28T19:26:15.883Z,8.40
2019-04-28T19:28:46.419Z,8.30
2019-04-28T19:31:15.772Z,8.30
2019-04-28T19:33:46.154Z,8.30
2019-04-28T19:36:15.513Z,8.30
2019-04-28T19:38:44.837Z,8.30
2019-04-28T19:41:14.883Z,8.30
2019-04-28T19:43:44.116Z,8.30
2019-04-28T19:46:15.341Z,8.30
2019-04-28T19:48:44.611Z,8.30
2019-04-28T19:51:13.866Z,8.30
2019-04-28T19:53:43.197Z,8.30
2019-04-28T19:56:21.350Z,8.20
2019-04-28T19:58:58.226Z,8.20
2019-04-28T20:01:32.363Z,8.10
2019-04-28T20:04:04.497Z,8.10
2019-04-28T20:06:33.942Z,8.00
2019-04-28T20:09:06.332Z,8.00
2019-04-28T20:11:38.325Z,7.90
2019-04-28T20:14:10.582Z,7.90
2019-04-28T20:16:40.074Z,7.90
2019-04-28T20:19:09.407Z,7.90
2019-04-28T20:21:38.699Z,7.90
2019-04-28T20:24:08.256Z,7.90
2019-04-28T20:26:37.860Z,7.90
2019-04-28T20:29:07.555Z,7.80
2019-04-28T20:31:36.830Z,7.80
2019-04-28T20:34:06.147Z,7.80
2019-04-28T20:37:00.374Z,7.80
2019-04-28T20:39:31.303Z,7.70
2019-04-28T20:42:20.920Z,7.60
2019-04-28T20:44:50.702Z,7.60
2019-04-28T20:47:21.060Z,7.60
2019-04-28T20:49:50.253Z,7.60
2019-04-28T20:52:19.475Z,7.60
2019-04-28T20:54:48.785Z,7.50
2019-04-28T20:57:18.091Z,7.50
2019-04-28T20:59:47.493Z,7.50
2019-04-28T21:02:16.802Z,7.40
2019-04-28T21:04:46.235Z,7.40
2019-04-28T21:07:15.489Z,7.40
2019-04-28T21:09:45.405Z,7.40
2019-04-28T21:12:14.654Z,7.40
2019-04-28T21:14:43.946Z,7.40
2019-04-28T21:17:13.223Z,7.40
2019-04-28T21:19:42.527Z,7.20
2019-04-28T21:22:11.821Z,7.30
2019-04-28T21:24:41.212Z,7.30
2019-04-28T21:27:10.588Z,7.30
2019-04-28T21:29:39.749Z,7.20
2019-04-28T21:32:08.968Z,7.20
2019-04-28T21:34:38.224Z,7.20
2019-04-28T21:37:07.412Z,7.20
2019-04-28T21:39:36.782Z,7.20
2019-04-28T21:42:07.993Z,7.20
2019-04-28T21:44:52.874Z,7.10
2019-04-28T21:47:25.575Z,7.10
2019-04-28T21:49:54.780Z,7.10
2019-04-28T21:52:24.091Z,7.10
2019-04-28T21:54:53.390Z,7.00
2019-04-28T21:57:22.838Z,7.00
2019-04-28T21:59:53.230Z,7.00
2019-04-28T22:02:22.490Z,7.00
2019-04-28T22:04:51.769Z,6.90
2019-04-28T22:07:21.019Z,6.90
2019-04-28T22:09:50.250Z,6.90
2019-04-28T22:12:19.586Z,6.90
2019-04-28T22:14:48.782Z,6.90
2019-04-28T22:17:19.574Z,6.90
2019-04-28T22:19:48.778Z,6.90
2019-04-28T22:22:18.038Z,6.90
2019-04-28T22:25:03.242Z,6.80
2019-04-28T22:27:36.247Z,6.80
2019-04-28T22:30:06.918Z,6.80
2019-04-28T22:32:36.079Z,6.70
2019-04-28T22:35:06.250Z,6.70
2019-04-28T22:37:37.956Z,6.70
2019-04-28T22:40:08.087Z,6.80
2019-04-28T22:42:37.440Z,6.70
2019-04-28T22:45:07.594Z,6.60
2019-04-28T22:47:36.787Z,6.60
2019-04-28T22:50:12.156Z,6.60
2019-04-28T22:52:41.509Z,6.60
2019-04-28T22:55:15.000Z,6.60
2019-04-28T22:57:54.268Z,6.60
2019-04-28T23:00:42.306Z,6.50
2019-04-28T23:03:16.829Z,6.50
2019-04-28T23:05:49.069Z,6.50
2019-04-28T23:08:19.362Z,6.50
2019-04-28T23:10:48.616Z,6.50
2019-04-28T23:13:17.894Z,6.50
2019-04-28T23:15:48.836Z,6.50
2019-04-28T23:18:18.250Z,6.50
2019-04-28T23:20:49.803Z,6.50
2019-04-28T23:23:19.063Z,6.50
2019-04-28T23:25:48.423Z,6.50
2019-04-28T23:28:18.472Z,6.50
2019-04-28T23:30:48.402Z,6.50
2019-04-28T23:33:17.762Z,6.50
2019-04-28T23:35:47.026Z,6.40
2019-04-28T23:38:16.322Z,6.40
2019-04-28T23:40:55.294Z,6.40
2019-04-28T23:43:24.504Z,6.30
2019-04-28T23:45:55.146Z,6.30
2019-04-28T23:48:24.943Z,6.20
2019-04-28T23:51:04.062Z,6.20
2019-04-28T23:53:51.042Z,6.20
2019-04-28T23:56:20.328Z,6.20
2019-04-28T23:58:52.914Z,6.10
